Time;durP1;ratioP1;P1;durP2;ratioP2;P2;SDS_P1;SDS_P2;PMS_P1;PMS_P2;Temp;Humidity;BMP_temperature;BMP_pressure;BME280_temperature;BME280_humidity;BME280_pressure;Samples;Min_cycle;Max_cycle;Signal;HPM_P1;HPM_P2
2021/12/14 00:01:15;;;;;;;;;;;13.50;2201.60;;;;;;4772812;30;20288;-61
2021/12/14 00:03:42;;;;;;;;;;;13.40;2201.60;;;;;;4773356;30;19909;-61
2021/12/14 00:06:10;;;;;;;;;;;13.40;2201.60;;;;;;4773549;30;20360;-61
2021/12/14 00:08:47;;;;;;;;;;;13.50;2201.60;;;;;;4773693;30;19939;-59
2021/12/14 00:11:30;;;;;;;;;;;13.50;2201.60;;;;;;4766902;30;19918;-60
2021/12/14 00:14:24;;;;;;;;;;;13.50;2201.60;;;;;;4760535;30;19913;-58
2021/12/14 00:16:43;;;;;;;;;;;13.50;2201.60;;;;;;4763985;30;20008;-58
2021/12/14 00:19:09;;;;;;;;;;;13.60;2201.60;;;;;;4746731;30;20333;-58
2021/12/14 00:21:35;;;;;;;;;;;13.60;2201.60;;;;;;4749741;30;19918;-58
2021/12/14 00:24:07;;;;;;;;;;;13.60;2201.60;;;;;;4767899;30;20013;-58
2021/12/14 00:26:40;;;;;;;;;;;13.60;2201.60;;;;;;4763311;30;20387;-58
2021/12/14 00:29:06;;;;;;;;;;;13.60;2201.60;;;;;;4762597;30;19918;-58
2021/12/14 00:31:35;;;;;;;;;;;13.60;2201.60;;;;;;4764790;30;19945;-59
2021/12/14 00:34:03;;;;;;;;;;;13.60;2201.60;;;;;;4764404;30;19952;-58
2021/12/14 00:36:29;;;;;;;;;;;13.50;2201.60;;;;;;4762759;30;19910;-58
2021/12/14 00:38:56;;;;;;;;;;;13.50;2201.60;;;;;;4763914;30;19968;-59
2021/12/14 00:41:24;;;;;;;;;;;13.40;2201.60;;;;;;4764160;30;20364;-59
2021/12/14 00:43:49;;;;;;;;;;;13.40;2201.60;;;;;;4762581;30;19910;-58
2021/12/14 00:46:17;;;;;;;;;;;13.30;2201.60;;;;;;4763155;30;19963;-58
2021/12/14 00:48:44;;;;;;;;;;;13.30;2201.60;;;;;;4764144;30;19917;-58
2021/12/14 00:51:10;;;;;;;;;;;13.20;2201.60;;;;;;4762487;30;20397;-58
2021/12/14 00:53:36;;;;;;;;;;;13.20;2201.60;;;;;;4763917;30;19970;-58
2021/12/14 00:56:06;;;;;;;;;;;13.20;2201.60;;;;;;4763857;30;20326;-58
2021/12/14 00:58:32;;;;;;;;;;;13.20;2201.60;;;;;;4759442;30;19910;-58
2021/12/14 01:01:04;;;;;;;;;;;13.10;2201.60;;;;;;4755132;30;19921;-58
2021/12/14 01:03:32;;;;;;;;;;;13.20;2201.60;;;;;;4754927;30;19917;-58
2021/12/14 01:05:59;;;;;;;;;;;13.20;2201.60;;;;;;4755128;30;19910;-58
2021/12/14 01:08:28;;;;;;;;;;;13.20;2201.60;;;;;;4754781;30;19910;-58
2021/12/14 01:10:57;;;;;;;;;;;13.20;2201.60;;;;;;4755227;30;19911;-58
2021/12/14 01:13:25;;;;;;;;;;;13.10;2201.60;;;;;;4754998;30;20028;-58
2021/12/14 01:21:00;;;;;;;;;;;13.10;2201.60;;;;;;4754480;30;19918;-58
2021/12/14 01:23:31;;;;;;;;;;;13.00;2201.60;;;;;;4754525;30;20023;-58
2021/12/14 01:26:02;;;;;;;;;;;13.00;2201.60;;;;;;4754461;30;19910;-58
2021/12/14 01:28:28;;;;;;;;;;;13.10;2201.60;;;;;;4755014;30;19910;-58
2021/12/14 01:31:06;;;;;;;;;;;13.20;2201.60;;;;;;4754171;30;19929;-58
2021/12/14 01:33:32;;;;;;;;;;;13.20;2201.60;;;;;;4754646;30;19910;-58
2021/12/14 01:35:59;;;;;;;;;;;13.40;2201.60;;;;;;4754521;30;20021;-58
2021/12/14 01:40:53;;;;;;;;;;;13.60;2201.60;;;;;;4754136;30;19972;-58
2021/12/14 01:43:39;;;;;;;;;;;13.60;2201.60;;;;;;4754398;30;20330;-58
2021/12/14 01:46:15;;;;;;;;;;;13.50;2201.60;;;;;;4754007;30;20331;-58
2021/12/14 01:48:41;;;;;;;;;;;13.60;2201.60;;;;;;4754050;30;19910;-58
2021/12/14 01:51:07;;;;;;;;;;;13.70;2201.60;;;;;;4754035;30;19910;-58
2021/12/14 01:53:34;;;;;;;;;;;13.70;2201.60;;;;;;4754251;30;19910;-58
2021/12/14 01:56:02;;;;;;;;;;;38.40;2201.60;;;;;;4753885;30;20387;-57
2021/12/14 01:58:33;;;;;;;;;;;38.50;2201.60;;;;;;4754047;30;20414;-58
2021/12/14 02:01:07;;;;;;;;;;;38.50;2201.60;;;;;;4754033;30;20412;-58
2021/12/14 02:03:39;;;;;;;;;;;38.50;2201.60;;;;;;4754145;30;19910;-58
2021/12/14 02:06:06;;;;;;;;;;;38.70;2201.60;;;;;;4754079;30;19987;-57
2021/12/14 02:08:33;;;;;;;;;;;38.70;2201.60;;;;;;4753749;30;19914;-57
2021/12/14 02:11:00;;;;;;;;;;;38.80;2201.60;;;;;;4754294;30;19956;-58
2021/12/14 02:13:31;;;;;;;;;;;38.80;2201.60;;;;;;4753677;30;20001;-57
2021/12/14 02:15:57;;;;;;;;;;;38.90;2201.60;;;;;;4754266;30;19910;-58
2021/12/14 02:18:23;;;;;;;;;;;38.90;2201.60;;;;;;4753670;30;19910;-58
2021/12/14 02:20:58;;;;;;;;;;;39.00;2201.60;;;;;;4753768;30;19918;-57
2021/12/14 02:23:24;;;;;;;;;;;39.00;2201.60;;;;;;4753472;30;19917;-58
2021/12/14 02:25:51;;;;;;;;;;;39.00;2201.60;;;;;;4753518;30;19999;-59
2021/12/14 02:28:18;;;;;;;;;;;39.00;2201.60;;;;;;4753530;30;19910;-58
2021/12/14 02:30:46;;;;;;;;;;;38.90;2201.60;;;;;;4753259;30;20391;-58
2021/12/14 02:33:18;;;;;;;;;;;38.90;2201.60;;;;;;4753641;30;19967;-58
2021/12/14 02:35:45;;;;;;;;;;;38.80;2201.60;;;;;;4753308;30;20382;-58
2021/12/14 02:38:11;;;;;;;;;;;38.70;2201.60;;;;;;4753695;30;19997;-58
2021/12/14 02:40:57;;;;;;;;;;;38.60;2201.60;;;;;;4753261;30;19976;-58
2021/12/14 02:43:28;;;;;;;;;;;38.60;2201.60;;;;;;4753663;30;19917;-58
2021/12/14 02:46:00;;;;;;;;;;;38.60;2201.60;;;;;;4753502;30;19914;-57
2021/12/14 02:48:26;;;;;;;;;;;38.60;2201.60;;;;;;4753382;30;19951;-58
2021/12/14 02:50:52;;;;;;;;;;;38.50;2201.60;;;;;;4753488;30;20327;-58
2021/12/14 02:53:18;;;;;;;;;;;38.40;2201.60;;;;;;4753196;30;20005;-58
2021/12/14 02:55:43;;;;;;;;;;;38.40;2201.60;;;;;;4753443;30;19916;-58
2021/12/14 02:58:09;;;;;;;;;;;38.40;2201.60;;;;;;4753148;30;20005;-57
2021/12/14 03:00:38;;;;;;;;;;;38.40;2201.60;;;;;;4753061;30;19925;-58
2021/12/14 03:03:04;;;;;;;;;;;38.40;2201.60;;;;;;4752991;30;19917;-58
2021/12/14 03:05:32;;;;;;;;;;;38.40;2201.60;;;;;;4753013;30;19960;-58
2021/12/14 03:08:04;;;;;;;;;;;38.40;2201.60;;;;;;4753297;30;20004;-58
2021/12/14 03:12:57;;;;;;;;;;;38.40;2201.60;;;;;;4756725;30;20253;-58
2021/12/14 03:15:25;;;;;;;;;;;38.40;2201.60;;;;;;4740712;30;19941;-58
2021/12/14 03:17:53;;;;;;;;;;;38.50;2201.60;;;;;;4756916;30;19909;-58
2021/12/14 03:20:21;;;;;;;;;;;38.50;2201.60;;;;;;4756492;30;19918;-58
2021/12/14 03:23:02;;;;;;;;;;;13.70;2201.60;;;;;;4756447;30;19910;-58
2021/12/14 03:25:28;;;;;;;;;;;38.40;2201.60;;;;;;4756504;30;19917;-58
2021/12/14 03:27:54;;;;;;;;;;;13.70;2201.60;;;;;;4756411;30;19945;-58
2021/12/14 03:30:30;;;;;;;;;;;38.40;2201.60;;;;;;4756301;30;19926;-58
2021/12/14 03:32:58;;;;;;;;;;;38.40;2201.60;;;;;;4756634;30;19914;-58
2021/12/14 03:35:36;;;;;;;;;;;38.40;2201.60;;;;;;4756262;30;19917;-58
2021/12/14 03:38:07;;;;;;;;;;;38.50;2201.60;;;;;;4756572;30;19910;-58
2021/12/14 03:40:33;;;;;;;;;;;38.50;2201.60;;;;;;4756129;30;20010;-57
2021/12/14 03:42:58;;;;;;;;;;;38.60;2201.60;;;;;;4756230;30;19972;-58
2021/12/14 03:45:24;;;;;;;;;;;38.60;2201.60;;;;;;4756969;30;20000;-58
2021/12/14 03:47:52;;;;;;;;;;;38.70;2201.60;;;;;;4756119;30;19917;-58
2021/12/14 03:50:35;;;;;;;;;;;38.70;2201.60;;;;;;4756014;30;19910;-58
2021/12/14 03:53:02;;;;;;;;;;;38.70;2201.60;;;;;;4756852;30;19910;-58
2021/12/14 03:55:30;;;;;;;;;;;38.80;2201.60;;;;;;4756255;30;19918;-58
2021/12/14 03:57:56;;;;;;;;;;;38.80;2201.60;;;;;;4755958;30;19914;-58
2021/12/14 04:00:24;;;;;;;;;;;38.90;2201.60;;;;;;4755866;30;19924;-58
2021/12/14 04:02:52;;;;;;;;;;;38.90;2201.60;;;;;;4740314;30;20272;-58
2021/12/14 04:05:18;;;;;;;;;;;38.90;2201.60;;;;;;4756094;30;19917;-58
2021/12/14 04:07:44;;;;;;;;;;;39.00;2201.60;;;;;;4755842;30;19910;-58
2021/12/14 04:10:12;;;;;;;;;;;39.10;2201.60;;;;;;4755743;30;19911;-58
2021/12/14 04:12:38;;;;;;;;;;;39.10;2201.60;;;;;;4755705;30;19921;-58
2021/12/14 04:15:04;;;;;;;;;;;39.10;2201.60;;;;;;4755709;30;19910;-58
2021/12/14 04:17:30;;;;;;;;;;;39.20;2201.60;;;;;;4755598;30;19910;-58
2021/12/14 04:19:56;;;;;;;;;;;39.10;2201.60;;;;;;4755829;30;19966;-58
2021/12/14 04:22:24;;;;;;;;;;;39.10;2201.60;;;;;;4754405;30;19910;-58
2021/12/14 04:24:52;;;;;;;;;;;39.10;2201.60;;;;;;4755476;30;19910;-57
2021/12/14 04:27:21;;;;;;;;;;;39.10;2201.60;;;;;;4755471;30;19911;-57
2021/12/14 04:29:47;;;;;;;;;;;39.20;2201.60;;;;;;4755155;30;19918;-58
2021/12/14 04:32:14;;;;;;;;;;;39.10;2201.60;;;;;;4755616;30;19942;-57
2021/12/14 04:34:41;;;;;;;;;;;39.20;2201.60;;;;;;4755410;30;20008;-58
2021/12/14 04:37:06;;;;;;;;;;;39.20;2201.60;;;;;;4755254;30;19914;-58
2021/12/14 04:53:10;;;;;;;;;;;39.10;2201.60;;;;;;4755149;30;19917;-57
2021/12/14 04:55:41;;;;;;;;;;;39.10;2201.60;;;;;;4754963;30;19921;-58
2021/12/14 04:58:07;;;;;;;;;;;39.20;2201.60;;;;;;4755016;30;19920;-58
2021/12/14 05:00:36;;;;;;;;;;;39.20;2201.60;;;;;;4754892;30;20333;-58
2021/12/14 05:03:03;;;;;;;;;;;39.20;2201.60;;;;;;4754855;30;19910;-58
2021/12/14 05:05:32;;;;;;;;;;;39.20;2201.60;;;;;;4754804;30;19910;-57
2021/12/14 05:10:54;;;;;;;;;;;39.20;2201.60;;;;;;4744763;30;19914;-58
2021/12/14 05:13:24;;;;;;;;;;;39.20;2201.60;;;;;;4754864;30;20023;-58
2021/12/14 05:15:50;;;;;;;;;;;39.20;2201.60;;;;;;4754870;30;20387;-58
2021/12/14 05:18:16;;;;;;;;;;;39.20;2201.60;;;;;;4754913;30;19914;-58
2021/12/14 05:20:43;;;;;;;;;;;39.30;2201.60;;;;;;4754574;30;19925;-58
2021/12/14 05:23:08;;;;;;;;;;;39.30;2201.60;;;;;;4754579;30;20400;-57
2021/12/14 05:25:37;;;;;;;;;;;64.00;2201.60;;;;;;4754716;30;19976;-57
2021/12/14 05:28:04;;;;;;;;;;;64.00;2201.60;;;;;;4754730;30;20322;-57
2021/12/14 05:30:33;;;;;;;;;;;39.30;2201.60;;;;;;4754153;30;19972;-57
2021/12/14 05:33:00;;;;;;;;;;;39.20;2201.60;;;;;;4753903;30;19914;-57
2021/12/14 05:35:26;;;;;;;;;;;39.20;2201.60;;;;;;4754564;30;19914;-57
2021/12/14 05:37:55;;;;;;;;;;;39.20;2201.60;;;;;;4754215;30;20414;-58
2021/12/14 05:40:56;;;;;;;;;;;39.30;2201.60;;;;;;4754132;30;20335;-57
2021/12/14 05:43:13;;;;;;;;;;;39.30;2201.60;;;;;;4752485;30;19967;-57
2021/12/14 05:45:40;;;;;;;;;;;39.20;2201.60;;;;;;4754160;30;19914;-57
2021/12/14 05:48:07;;;;;;;;;;;39.20;2201.60;;;;;;4754336;30;19988;-58
2021/12/14 05:50:35;;;;;;;;;;;39.20;2201.60;;;;;;4754090;30;20411;-57
2021/12/14 05:53:01;;;;;;;;;;;39.20;2201.60;;;;;;4754033;30;20369;-57
2021/12/14 05:55:33;;;;;;;;;;;39.20;2201.60;;;;;;4754281;30;19910;-57
2021/12/14 05:57:59;;;;;;;;;;;39.20;2201.60;;;;;;4753847;30;19910;-57
2021/12/14 06:00:26;;;;;;;;;;;39.10;2201.60;;;;;;4753834;30;20413;-57
2021/12/14 06:02:52;;;;;;;;;;;39.10;2201.60;;;;;;4754500;30;20006;-57
2021/12/14 06:05:19;;;;;;;;;;;39.10;2201.60;;;;;;4753872;30;19961;-57
2021/12/14 06:07:45;;;;;;;;;;;39.10;2201.60;;;;;;4754107;30;19959;-57
2021/12/14 06:10:12;;;;;;;;;;;39.10;2201.60;;;;;;4753756;30;20008;-57
2021/12/14 06:12:38;;;;;;;;;;;39.10;2201.60;;;;;;4753672;30;19910;-57
2021/12/14 06:15:08;;;;;;;;;;;39.00;2201.60;;;;;;4753716;30;19910;-57
2021/12/14 06:17:35;;;;;;;;;;;39.10;2201.60;;;;;;4753871;30;19960;-58
2021/12/14 06:20:07;;;;;;;;;;;39.00;2201.60;;;;;;4753563;30;20008;-57
2021/12/14 06:22:33;;;;;;;;;;;39.10;2201.60;;;;;;4753893;30;20356;-57
2021/12/14 06:25:01;;;;;;;;;;;39.10;2201.60;;;;;;4753494;30;19910;-58
2021/12/14 06:27:28;;;;;;;;;;;39.10;2201.60;;;;;;4753780;30;19914;-57
2021/12/14 06:29:55;;;;;;;;;;;39.10;2201.60;;;;;;4753313;30;20291;-57
2021/12/14 06:32:29;;;;;;;;;;;39.10;2201.60;;;;;;4753464;30;20364;-58
2021/12/14 06:34:56;;;;;;;;;;;39.00;2201.60;;;;;;4753447;30;19960;-57
2021/12/14 06:40:05;;;;;;;;;;;39.00;2201.60;;;;;;4753572;30;20352;-57
2021/12/14 06:42:31;;;;;;;;;;;39.10;2201.60;;;;;;4753311;30;19910;-57
2021/12/14 06:45:10;;;;;;;;;;;39.00;2201.60;;;;;;4753180;30;19921;-57
2021/12/14 06:47:37;;;;;;;;;;;38.90;2201.60;;;;;;4753294;30;19914;-58
2021/12/14 06:50:08;;;;;;;;;;;38.90;2201.60;;;;;;4753135;30;20365;-57
2021/12/14 06:52:34;;;;;;;;;;;38.90;2201.60;;;;;;4753200;30;20384;-59
2021/12/14 06:55:00;;;;;;;;;;;38.90;2201.60;;;;;;4753425;30;19914;-58
2021/12/14 06:57:27;;;;;;;;;;;38.90;2201.60;;;;;;4753434;30;20330;-58
2021/12/14 06:59:56;;;;;;;;;;;38.90;2201.60;;;;;;4753326;30;19976;-57
2021/12/14 07:02:23;;;;;;;;;;;38.90;2201.60;;;;;;4753055;30;19910;-57
2021/12/14 07:04:51;;;;;;;;;;;38.80;2201.60;;;;;;4753067;30;19964;-57
2021/12/14 07:07:18;;;;;;;;;;;38.80;2201.60;;;;;;4753010;30;19914;-57
2021/12/14 07:09:47;;;;;;;;;;;38.70;2201.60;;;;;;4752989;30;19917;-58
2021/12/14 07:12:17;;;;;;;;;;;38.60;2201.60;;;;;;4737157;30;20383;-59
2021/12/14 07:14:58;;;;;;;;;;;38.50;2201.60;;;;;;4752954;30;19949;-58
2021/12/14 07:17:29;;;;;;;;;;;38.40;2201.60;;;;;;4752987;30;19910;-59
2021/12/14 07:20:15;;;;;;;;;;;13.70;2201.60;;;;;;4752891;30;20357;-58
2021/12/14 07:22:44;;;;;;;;;;;13.60;2201.60;;;;;;4752966;30;19910;-57
2021/12/14 07:25:14;;;;;;;;;;;13.50;2201.60;;;;;;4753201;30;19917;-57
2021/12/14 07:27:43;;;;;;;;;;;13.40;2201.60;;;;;;4753158;30;19911;-57
2021/12/14 07:30:15;;;;;;;;;;;13.40;2201.60;;;;;;4752803;30;19922;-58
2021/12/14 07:33:07;;;;;;;;;;;13.30;2201.60;;;;;;4752783;30;19959;-59
2021/12/14 07:35:39;;;;;;;;;;;13.30;2201.60;;;;;;4750929;30;19916;-58
2021/12/14 07:38:10;;;;;;;;;;;13.40;2201.60;;;;;;4753050;30;20283;-58
2021/12/14 07:40:39;;;;;;;;;;;13.40;2201.60;;;;;;4752703;30;19929;-58
2021/12/14 07:43:22;;;;;;;;;;;13.40;2201.60;;;;;;4752808;30;19976;-58
2021/12/14 07:45:50;;;;;;;;;;;13.40;2201.60;;;;;;4752954;30;19910;-58
2021/12/14 07:48:17;;;;;;;;;;;13.50;2201.60;;;;;;4752827;30;19921;-58
2021/12/14 07:51:01;;;;;;;;;;;13.40;2201.60;;;;;;4752709;30;19917;-58
2021/12/14 07:53:37;;;;;;;;;;;13.40;2201.60;;;;;;4752939;30;20000;-57
2021/12/14 07:56:03;;;;;;;;;;;13.40;2201.60;;;;;;4753747;30;19917;-57
2021/12/14 07:58:30;;;;;;;;;;;13.40;2201.60;;;;;;4756147;30;19910;-58
2021/12/14 08:00:56;;;;;;;;;;;13.30;2201.60;;;;;;4756645;30;19980;-58
2021/12/14 08:03:28;;;;;;;;;;;13.30;2201.60;;;;;;4755978;30;19968;-58
2021/12/14 08:05:54;;;;;;;;;;;13.20;2201.60;;;;;;4755804;30;19910;-58
2021/12/14 08:08:31;;;;;;;;;;;13.20;2201.60;;;;;;4755766;30;19917;-58
2021/12/14 08:11:27;;;;;;;;;;;13.10;2201.60;;;;;;4755712;30;19914;-58
2021/12/14 08:13:53;;;;;;;;;;;13.10;2201.60;;;;;;4755901;30;19917;-57
2021/12/14 08:16:19;;;;;;;;;;;13.00;2201.60;;;;;;4755884;30;19917;-58
2021/12/14 08:18:46;;;;;;;;;;;12.90;2201.60;;;;;;4755608;30;20284;-58
2021/12/14 08:21:19;;;;;;;;;;;12.90;2201.60;;;;;;4755616;30;19926;-59
2021/12/14 08:23:48;;;;;;;;;;;12.90;2201.60;;;;;;4755771;30;19914;-58
2021/12/14 08:26:15;;;;;;;;;;;0.00;2201.60;;;;;;4755367;30;19967;-58
2021/12/14 08:28:55;;;;;;;;;;;0.10;2201.60;;;;;;4739719;30;19914;-58
2021/12/14 08:31:22;;;;;;;;;;;0.10;2201.60;;;;;;4755296;30;19925;-57
2021/12/14 08:33:56;;;;;;;;;;;0.20;2201.60;;;;;;4755421;30;19918;-58
2021/12/14 08:36:23;;;;;;;;;;;0.20;2201.60;;;;;;4755266;30;20369;-58
2021/12/14 08:39:00;;;;;;;;;;;0.20;2201.60;;;;;;4755497;30;19968;-61
2021/12/14 08:41:27;;;;;;;;;;;0.40;2201.60;;;;;;4755513;30;19945;-61
2021/12/14 08:43:54;;;;;;;;;;;0.30;2201.60;;;;;;4755503;30;20321;-61
2021/12/14 08:46:26;;;;;;;;;;;0.20;2201.60;;;;;;4755444;30;19920;-61
2021/12/14 08:48:54;;;;;;;;;;;0.40;2201.60;;;;;;4755198;30;19918;-61
2021/12/14 08:51:24;;;;;;;;;;;0.50;2201.60;;;;;;4755032;30;19945;-61
2021/12/14 08:54:21;;;;;;;;;;;0.60;2201.60;;;;;;4754978;30;20034;-61
2021/12/14 08:56:47;;;;;;;;;;;0.80;2201.60;;;;;;4739015;30;20269;-60
2021/12/14 08:59:13;;;;;;;;;;;25.60;2201.60;;;;;;4754860;30;19959;-61
2021/12/14 09:01:43;;;;;;;;;;;25.70;2201.60;;;;;;4754855;30;20332;-61
2021/12/14 09:04:15;;;;;;;;;;;25.70;2201.60;;;;;;4754779;30;20009;-60
2021/12/14 09:06:43;;;;;;;;;;;25.70;2201.60;;;;;;4754722;30;20422;-60
2021/12/14 09:09:11;;;;;;;;;;;25.70;2201.60;;;;;;4754144;30;19975;-61
2021/12/14 09:11:38;;;;;;;;;;;25.60;2201.60;;;;;;4755009;30;19921;-60
2021/12/14 09:14:05;;;;;;;;;;;25.70;2201.60;;;;;;4754726;30;19910;-61
2021/12/14 09:16:32;;;;;;;;;;;25.70;2201.60;;;;;;4754864;30;20380;-60
2021/12/14 09:19:02;;;;;;;;;;;25.60;2201.60;;;;;;4754719;30;19923;-61
2021/12/14 09:21:38;;;;;;;;;;;0.90;2201.60;;;;;;4754797;30;20439;-60
2021/12/14 09:24:06;;;;;;;;;;;0.90;2201.60;;;;;;4754796;30;19997;-60
2021/12/14 09:26:35;;;;;;;;;;;0.70;2201.60;;;;;;4754473;30;19910;-60
2021/12/14 09:29:01;;;;;;;;;;;0.90;2201.60;;;;;;4754587;30;20435;-60
2021/12/14 09:31:28;;;;;;;;;;;25.60;2201.60;;;;;;4754412;30;19933;-60
2021/12/14 09:33:55;;;;;;;;;;;25.60;2201.60;;;;;;4754325;30;19917;-61
2021/12/14 09:36:21;;;;;;;;;;;25.60;2201.60;;;;;;4754677;30;19910;-60
2021/12/14 09:38:52;;;;;;;;;;;25.60;2201.60;;;;;;4754301;30;20378;-60
2021/12/14 09:41:21;;;;;;;;;;;25.80;2201.60;;;;;;4754571;30;19918;-60
2021/12/14 09:43:48;;;;;;;;;;;26.00;2201.60;;;;;;4738318;30;19917;-60
2021/12/14 09:46:14;;;;;;;;;;;26.10;2201.60;;;;;;4754137;30;20284;-60
2021/12/14 09:48:41;;;;;;;;;;;26.20;2201.60;;;;;;4754129;30;20382;-60
2021/12/14 09:51:10;;;;;;;;;;;26.40;2201.60;;;;;;4754369;30;19910;-60
2021/12/14 09:53:39;;;;;;;;;;;51.30;2227.20;;;;;;4753987;30;20016;-60
2021/12/14 09:56:06;;;;;;;;;;;51.50;2227.20;;;;;;4753990;30;19916;-60
2021/12/14 09:58:34;;;;;;;;;;;51.60;2227.20;;;;;;4754028;30;20322;-61
2021/12/14 10:01:03;;;;;;;;;;;51.80;2227.20;;;;;;4753888;30;19967;-60
2021/12/14 10:03:29;;;;;;;;;;;77.10;2227.20;;;;;;4753875;30;19910;-60
2021/12/14 10:06:00;;;;;;;;;;;76.80;2227.20;;;;;;4754109;30;19917;-60
2021/12/14 10:08:33;;;;;;;;;;;51.90;2227.20;;;;;;4753852;30;19910;-60
2021/12/14 10:11:05;;;;;;;;;;;52.00;2227.20;;;;;;4753911;30;20420;-60
2021/12/14 10:13:32;;;;;;;;;;;51.80;2227.20;;;;;;4753723;30;19936;-60
2021/12/14 10:15:59;;;;;;;;;;;51.70;2227.20;;;;;;4753663;30;19910;-60
2021/12/14 10:18:33;;;;;;;;;;;51.50;2227.20;;;;;;4753862;30;20370;-60
2021/12/14 10:21:02;;;;;;;;;;;51.70;2227.20;;;;;;4753551;30;20436;-61
2021/12/14 10:23:30;;;;;;;;;;;51.70;2227.20;;;;;;4753601;30;19916;-60
2021/12/14 10:25:56;;;;;;;;;;;51.60;2227.20;;;;;;4753502;30;19967;-60
2021/12/14 10:28:23;;;;;;;;;;;51.80;2227.20;;;;;;4753511;30;19910;-60
2021/12/14 10:30:56;;;;;;;;;;;51.80;2227.20;;;;;;4753300;30;20265;-60
2021/12/14 10:33:23;;;;;;;;;;;51.90;2227.20;;;;;;4753498;30;20377;-61
2021/12/14 10:35:53;;;;;;;;;;;51.80;2227.20;;;;;;4753592;30;19918;-60
2021/12/14 10:38:27;;;;;;;;;;;51.80;2227.20;;;;;;4753623;30;19910;-60
2021/12/14 10:43:40;;;;;;;;;;;52.10;2227.20;;;;;;4753929;30;19968;-60
2021/12/14 10:46:11;;;;;;;;;;;77.30;2227.20;;;;;;4753228;30;19954;-60
2021/12/14 10:48:40;;;;;;;;;;;77.30;2227.20;;;;;;4753267;30;20372;-60
2021/12/14 10:51:08;;;;;;;;;;;77.50;2227.20;;;;;;4753518;30;20395;-60
2021/12/14 10:53:34;;;;;;;;;;;77.50;2227.20;;;;;;4753183;30;20357;-60
2021/12/14 10:56:11;;;;;;;;;;;102.40;2227.20;;;;;;4737618;30;19964;-60
2021/12/14 10:58:37;;;;;;;;;;;102.40;2227.20;;;;;;4753095;30;19914;-60
2021/12/14 11:01:14;;;;;;;;;;;77.70;2227.20;;;;;;4753044;30;19925;-60
2021/12/14 11:03:44;;;;;;;;;;;102.50;2227.20;;;;;;4753389;30;19933;-60
2021/12/14 11:06:13;;;;;;;;;;;102.70;2227.20;;;;;;4753275;30;20016;-61
2021/12/14 11:08:59;;;;;;;;;;;103.00;2227.20;;;;;;4753346;30;20339;-61
2021/12/14 11:11:34;;;;;;;;;;;103.20;2227.20;;;;;;4753312;30;20271;-61
2021/12/14 11:14:02;;;;;;;;;;;103.10;2227.20;;;;;;4753304;30;19933;-61
2021/12/14 11:18:08;;;;;;;;;;;103.10;2227.20;;;;;;4753206;30;19917;-61
2021/12/14 11:19:19;;;;;;;;;;;103.00;2227.20;;;;;;4752790;30;20337;-61
2021/12/14 11:21:45;;;;;;;;;;;103.00;2227.20;;;;;;4752942;30;19914;-61
2021/12/14 11:24:11;;;;;;;;;;;103.20;2227.20;;;;;;4753230;30;19910;-61
2021/12/14 11:26:36;;;;;;;;;;;103.30;2227.20;;;;;;4752892;30;20296;-61
2021/12/14 11:29:08;;;;;;;;;;;128.10;2252.80;;;;;;4752912;30;19917;-60
2021/12/14 11:31:36;;;;;;;;;;;128.20;2252.80;;;;;;4754615;30;20273;-61
2021/12/14 11:34:12;;;;;;;;;;;128.30;2252.80;;;;;;4756449;30;20026;-61
2021/12/14 11:37:02;;;;;;;;;;;128.10;2252.80;;;;;;4756347;30;20368;-61
2021/12/14 11:39:30;;;;;;;;;;;128.20;2252.80;;;;;;4756371;30;20284;-60
2021/12/14 11:41:55;;;;;;;;;;;128.40;2252.80;;;;;;4756496;30;19914;-61
2021/12/14 11:44:26;;;;;;;;;;;128.00;2252.80;;;;;;4756284;30;19910;-60
2021/12/14 11:46:52;;;;;;;;;;;103.10;2227.20;;;;;;4756225;30;19959;-60
2021/12/14 11:49:19;;;;;;;;;;;103.00;2227.20;;;;;;4756343;30;19910;-61
2021/12/14 11:51:45;;;;;;;;;;;102.70;2227.20;;;;;;4756382;30;19932;-61
2021/12/14 11:54:14;;;;;;;;;;;102.80;2227.20;;;;;;4755959;30;20361;-60
2021/12/14 11:56:39;;;;;;;;;;;102.90;2227.20;;;;;;4755878;30;19917;-61
2021/12/14 11:59:07;;;;;;;;;;;102.90;2227.20;;;;;;4755975;30;19910;-60
2021/12/14 12:01:41;;;;;;;;;;;103.00;2227.20;;;;;;4756090;30;19922;-60
2021/12/14 12:04:33;;;;;;;;;;;103.00;2227.20;;;;;;4755774;30;20341;-60
2021/12/14 12:09:37;;;;;;;;;;;102.70;2227.20;;;;;;4755773;30;19914;-62
2021/12/14 12:12:03;;;;;;;;;;;102.60;2227.20;;;;;;4755787;30;20280;-61
2021/12/14 12:14:30;;;;;;;;;;;102.60;2227.20;;;;;;4755701;30;19910;-62
2021/12/14 12:16:58;;;;;;;;;;;102.80;2227.20;;;;;;4755704;30;19920;-62
2021/12/14 12:19:26;;;;;;;;;;;102.70;2227.20;;;;;;4755551;30;19918;-60
2021/12/14 12:21:52;;;;;;;;;;;102.70;2227.20;;;;;;4755581;30;19967;-60
2021/12/14 12:24:36;;;;;;;;;;;102.70;2227.20;;;;;;4755788;30;19910;-60
2021/12/14 12:27:19;;;;;;;;;;;102.60;2227.20;;;;;;4755792;30;20329;-61
2021/12/14 12:29:45;;;;;;;;;;;102.50;2227.20;;;;;;4755243;30;20006;-62
2021/12/14 12:32:23;;;;;;;;;;;102.40;2227.20;;;;;;4755675;30;20008;-60
2021/12/14 12:34:50;;;;;;;;;;;77.70;2227.20;;;;;;4755702;30;20292;-61
2021/12/14 12:37:16;;;;;;;;;;;77.70;2227.20;;;;;;4755659;30;20473;-61
2021/12/14 12:39:47;;;;;;;;;;;77.60;2227.20;;;;;;4755495;30;20357;-60
2021/12/14 12:42:15;;;;;;;;;;;77.70;2227.20;;;;;;4754397;30;19917;-60
2021/12/14 12:44:41;;;;;;;;;;;77.50;2227.20;;;;;;4755170;30;20036;-60
2021/12/14 12:47:17;;;;;;;;;;;77.60;2227.20;;;;;;4755418;30;20280;-60
2021/12/14 12:49:48;;;;;;;;;;;102.40;2227.20;;;;;;4755168;30;19993;-60
2021/12/14 12:52:15;;;;;;;;;;;102.60;2227.20;;;;;;4755111;30;20348;-60
2021/12/14 12:54:50;;;;;;;;;;;102.40;2227.20;;;;;;4755081;30;19980;-60
2021/12/14 12:57:20;;;;;;;;;;;102.50;2227.20;;;;;;4755182;30;19910;-60
2021/12/14 12:59:49;;;;;;;;;;;102.40;2227.20;;;;;;4755435;30;19921;-60
2021/12/14 13:02:29;;;;;;;;;;;102.40;2227.20;;;;;;4754876;30;19914;-60
2021/12/14 13:04:57;;;;;;;;;;;102.50;2227.20;;;;;;4754889;30;19910;-60
2021/12/14 13:07:32;;;;;;;;;;;77.70;2227.20;;;;;;4755276;30;19910;-61
2021/12/14 13:10:18;;;;;;;;;;;77.60;2227.20;;;;;;4754875;30;19910;-60
2021/12/14 13:12:56;;;;;;;;;;;77.20;2227.20;;;;;;4754489;30;19910;-60
2021/12/14 13:15:30;;;;;;;;;;;77.00;2227.20;;;;;;4755076;30;20000;-60
2021/12/14 13:18:14;;;;;;;;;;;76.90;2227.20;;;;;;4754655;30;20377;-61
2021/12/14 13:20:40;;;;;;;;;;;76.80;2227.20;;;;;;4762983;30;19922;-60
2021/12/14 13:23:05;;;;;;;;;;;76.80;2227.20;;;;;;4762684;30;20382;-60
2021/12/14 13:25:36;;;;;;;;;;;52.10;2227.20;;;;;;4763889;30;19909;-60
2021/12/14 13:28:01;;;;;;;;;;;52.10;2227.20;;;;;;4761704;30;20487;-60
2021/12/14 13:30:28;;;;;;;;;;;52.10;2227.20;;;;;;4753651;30;19922;-61
2021/12/14 13:32:54;;;;;;;;;;;76.90;2227.20;;;;;;4755182;30;19959;-60
2021/12/14 13:35:22;;;;;;;;;;;77.00;2227.20;;;;;;4761888;30;19961;-60
2021/12/14 13:37:49;;;;;;;;;;;77.10;2227.20;;;;;;4756527;30;19914;-60
2021/12/14 13:40:17;;;;;;;;;;;77.10;2227.20;;;;;;4760059;30;19988;-60
2021/12/14 13:42:49;;;;;;;;;;;77.10;2227.20;;;;;;4762546;30;19914;-60
2021/12/14 13:45:17;;;;;;;;;;;77.00;2227.20;;;;;;4761688;30;19913;-60
2021/12/14 13:47:44;;;;;;;;;;;77.00;2227.20;;;;;;4762194;30;19910;-60
2021/12/14 13:50:12;;;;;;;;;;;77.00;2227.20;;;;;;4762105;30;19909;-60
2021/12/14 13:52:37;;;;;;;;;;;76.80;2227.20;;;;;;4763437;30;19910;-60
2021/12/14 13:55:03;;;;;;;;;;;52.10;2227.20;;;;;;4762635;30;20356;-60
2021/12/14 13:57:29;;;;;;;;;;;52.10;2227.20;;;;;;4769228;30;19916;-60
2021/12/14 13:59:55;;;;;;;;;;;52.10;2227.20;;;;;;4766811;30;19975;-60
2021/12/14 14:02:20;;;;;;;;;;;51.90;2227.20;;;;;;4756112;30;19917;-60
2021/12/14 14:04:46;;;;;;;;;;;51.80;2227.20;;;;;;4754143;30;19914;-61
2021/12/14 14:07:12;;;;;;;;;;;51.80;2227.20;;;;;;4753773;30;20373;-60
2021/12/14 14:09:40;;;;;;;;;;;51.70;2227.20;;;;;;4754328;30;19910;-60
2021/12/14 14:12:14;;;;;;;;;;;51.70;2227.20;;;;;;4753706;30;19917;-60
2021/12/14 14:14:41;;;;;;;;;;;51.60;2227.20;;;;;;4753983;30;19984;-60
2021/12/14 14:17:17;;;;;;;;;;;51.60;2227.20;;;;;;4753686;30;19916;-61
2021/12/14 14:19:51;;;;;;;;;;;51.60;2227.20;;;;;;4753583;30;19972;-60
2021/12/14 14:22:23;;;;;;;;;;;51.50;2227.20;;;;;;4753890;30;20067;-61
2021/12/14 14:25:03;;;;;;;;;;;51.40;2227.20;;;;;;4753606;30;19933;-60
2021/12/14 14:27:43;;;;;;;;;;;51.40;2227.20;;;;;;4753585;30;20000;-60
2021/12/14 14:30:21;;;;;;;;;;;51.30;2227.20;;;;;;4753245;30;19971;-60
2021/12/14 14:33:17;;;;;;;;;;;51.20;2227.20;;;;;;4753694;30;19914;-59
2021/12/14 14:35:46;;;;;;;;;;;51.20;2227.20;;;;;;4753396;30;20022;-60
2021/12/14 14:38:32;;;;;;;;;;;51.20;2227.20;;;;;;4753667;30;19933;-61
2021/12/14 14:41:09;;;;;;;;;;;51.20;2227.20;;;;;;4753536;30;19918;-60